sensor_id;sensor_type;location;lat;lon;timestamp;P1;durP1;ratioP1;P2;durP2;ratioP2
35646;SDS011;28680;45.642;13.756;2022-10-31T00:03:56;14.70;;;4.47;;
35646;SDS011;28680;45.642;13.756;2022-10-31T00:06:22;9.30;;;3.70;;
35646;SDS011;28680;45.642;13.756;2022-10-31T00:08:53;11.98;;;4.25;;
35646;SDS011;28680;45.642;13.756;2022-10-31T00:11:23;11.70;;;4.28;;
35646;SDS011;28680;45.642;13.756;2022-10-31T00:13:49;9.82;;;4.55;;
35646;SDS011;28680;45.642;13.756;2022-10-31T00:16:20;14.15;;;4.88;;
35646;SDS011;28680;45.642;13.756;2022-10-31T00:18:48;13.88;;;4.60;;
35646;SDS011;28680;45.642;13.756;2022-10-31T00:21:20;12.15;;;4.47;;
35646;SDS011;28680;45.642;13.756;2022-10-31T00:23:49;10.80;;;4.38;;
35646;SDS011;28680;45.642;13.756;2022-10-31T00:26:16;10.18;;;4.10;;
35646;SDS011;28680;45.642;13.756;2022-10-31T00:28:42;7.15;;;3.92;;
35646;SDS011;28680;45.642;13.756;2022-10-31T00:31:09;12.85;;;4.40;;
35646;SDS011;28680;45.642;13.756;2022-10-31T00:33:36;10.05;;;4.22;;
35646;SDS011;28680;45.642;13.756;2022-10-31T00:36:04;11.40;;;4.03;;
35646;SDS011;28680;45.642;13.756;2022-10-31T00:38:32;13.15;;;3.90;;
35646;SDS011;28680;45.642;13.756;2022-10-31T00:40:58;10.07;;;3.40;;
35646;SDS011;28680;45.642;13.756;2022-10-31T00:43:24;10.45;;;3.88;;
35646;SDS011;28680;45.642;13.756;2022-10-31T00:45:50;17.05;;;4.00;;
35646;SDS011;28680;45.642;13.756;2022-10-31T00:48:16;7.93;;;3.80;;
35646;SDS011;28680;45.642;13.756;2022-10-31T00:50:41;7.78;;;3.72;;
35646;SDS011;28680;45.642;13.756;2022-10-31T00:53:07;9.05;;;4.00;;
35646;SDS011;28680;45.642;13.756;2022-10-31T00:55:33;15.75;;;3.70;;
35646;SDS011;28680;45.642;13.756;2022-10-31T00:57:59;11.18;;;3.35;;
35646;SDS011;28680;45.642;13.756;2022-10-31T01:00:25;8.88;;;3.40;;
35646;SDS011;28680;45.642;13.756;2022-10-31T01:02:51;10.52;;;3.60;;
35646;SDS011;28680;45.642;13.756;2022-10-31T01:05:17;6.43;;;2.80;;
35646;SDS011;28680;45.642;13.756;2022-10-31T01:07:43;6.55;;;2.90;;
35646;SDS011;28680;45.642;13.756;2022-10-31T01:10:10;6.15;;;2.85;;
35646;SDS011;28680;45.642;13.756;2022-10-31T01:12:39;11.13;;;2.83;;
35646;SDS011;28680;45.642;13.756;2022-10-31T01:15:10;9.77;;;2.75;;
35646;SDS011;28680;45.642;13.756;2022-10-31T01:17:39;9.70;;;3.42;;
35646;SDS011;28680;45.642;13.756;2022-10-31T01:20:06;8.80;;;3.10;;
35646;SDS011;28680;45.642;13.756;2022-10-31T01:22:33;6.65;;;2.97;;
35646;SDS011;28680;45.642;13.756;2022-10-31T01:24:59;8.93;;;3.30;;
35646;SDS011;28680;45.642;13.756;2022-10-31T01:27:25;10.23;;;3.33;;
35646;SDS011;28680;45.642;13.756;2022-10-31T01:29:51;8.52;;;3.13;;
35646;SDS011;28680;45.642;13.756;2022-10-31T01:32:17;8.27;;;3.80;;
35646;SDS011;28680;45.642;13.756;2022-10-31T01:34:43;7.40;;;3.20;;
35646;SDS011;28680;45.642;13.756;2022-10-31T01:37:09;9.25;;;3.28;;
35646;SDS011;28680;45.642;13.756;2022-10-31T01:39:35;8.60;;;2.97;;
35646;SDS011;28680;45.642;13.756;2022-10-31T01:42:01;7.93;;;2.80;;
35646;SDS011;28680;45.642;13.756;2022-10-31T01:46:57;9.57;;;3.08;;
35646;SDS011;28680;45.642;13.756;2022-10-31T01:49:41;8.35;;;3.42;;
35646;SDS011;28680;45.642;13.756;2022-10-31T01:52:12;11.57;;;3.50;;
35646;SDS011;28680;45.642;13.756;2022-10-31T01:55:05;10.07;;;3.47;;
35646;SDS011;28680;45.642;13.756;2022-10-31T01:57:39;7.93;;;2.70;;
35646;SDS011;28680;45.642;13.756;2022-10-31T02:00:09;10.43;;;2.60;;
35646;SDS011;28680;45.642;13.756;2022-10-31T02:02:37;9.30;;;2.85;;
35646;SDS011;28680;45.642;13.756;2022-10-31T02:05:08;6.95;;;2.70;;
35646;SDS011;28680;45.642;13.756;2022-10-31T02:07:47;9.88;;;2.70;;
35646;SDS011;28680;45.642;13.756;2022-10-31T02:10:23;13.73;;;3.57;;
35646;SDS011;28680;45.642;13.756;2022-10-31T02:12:50;10.25;;;2.95;;
35646;SDS011;28680;45.642;13.756;2022-10-31T02:15:18;11.75;;;2.70;;
35646;SDS011;28680;45.642;13.756;2022-10-31T02:17:44;10.82;;;2.50;;
35646;SDS011;28680;45.642;13.756;2022-10-31T02:20:18;9.95;;;2.90;;
35646;SDS011;28680;45.642;13.756;2022-10-31T02:45:55;9.57;;;2.47;;
35646;SDS011;28680;45.642;13.756;2022-10-31T02:48:30;7.43;;;2.10;;
35646;SDS011;28680;45.642;13.756;2022-10-31T02:51:00;7.75;;;2.60;;
35646;SDS011;28680;45.642;13.756;2022-10-31T02:53:33;12.48;;;2.35;;
35646;SDS011;28680;45.642;13.756;2022-10-31T02:56:07;7.70;;;2.08;;
35646;SDS011;28680;45.642;13.756;2022-10-31T02:58:54;8.55;;;2.42;;
35646;SDS011;28680;45.642;13.756;2022-10-31T03:01:33;7.95;;;2.53;;
35646;SDS011;28680;45.642;13.756;2022-10-31T03:13:21;8.35;;;2.10;;
35646;SDS011;28680;45.642;13.756;2022-10-31T03:16:16;7.97;;;2.63;;
35646;SDS011;28680;45.642;13.756;2022-10-31T03:18:58;6.75;;;2.13;;
35646;SDS011;28680;45.642;13.756;2022-10-31T03:21:33;7.10;;;1.98;;
35646;SDS011;28680;45.642;13.756;2022-10-31T03:24:14;8.77;;;2.78;;
35646;SDS011;28680;45.642;13.756;2022-10-31T03:26:45;8.57;;;2.65;;
35646;SDS011;28680;45.642;13.756;2022-10-31T03:29:18;8.27;;;2.45;;
35646;SDS011;28680;45.642;13.756;2022-10-31T03:34:28;9.02;;;2.75;;
35646;SDS011;28680;45.642;13.756;2022-10-31T03:37:03;8.32;;;2.35;;
35646;SDS011;28680;45.642;13.756;2022-10-31T03:39:34;8.30;;;2.55;;
35646;SDS011;28680;45.642;13.756;2022-10-31T03:42:11;8.00;;;2.20;;
35646;SDS011;28680;45.642;13.756;2022-10-31T03:44:44;7.25;;;2.35;;
35646;SDS011;28680;45.642;13.756;2022-10-31T03:47:18;8.15;;;2.78;;
35646;SDS011;28680;45.642;13.756;2022-10-31T03:49:44;8.90;;;2.35;;
35646;SDS011;28680;45.642;13.756;2022-10-31T03:54:59;6.35;;;2.20;;
35646;SDS011;28680;45.642;13.756;2022-10-31T03:57:39;9.43;;;2.50;;
35646;SDS011;28680;45.642;13.756;2022-10-31T04:00:10;11.02;;;2.65;;
35646;SDS011;28680;45.642;13.756;2022-10-31T04:02:40;9.70;;;2.38;;
35646;SDS011;28680;45.642;13.756;2022-10-31T04:05:28;6.90;;;2.53;;
35646;SDS011;28680;45.642;13.756;2022-10-31T04:07:55;11.50;;;3.15;;
35646;SDS011;28680;45.642;13.756;2022-10-31T04:10:24;6.57;;;3.13;;
35646;SDS011;28680;45.642;13.756;2022-10-31T04:12:55;7.63;;;2.83;;
35646;SDS011;28680;45.642;13.756;2022-10-31T04:15:34;10.77;;;3.10;;
35646;SDS011;28680;45.642;13.756;2022-10-31T04:18:02;8.25;;;3.10;;
35646;SDS011;28680;45.642;13.756;2022-10-31T04:20:34;7.95;;;3.72;;
35646;SDS011;28680;45.642;13.756;2022-10-31T04:23:03;13.27;;;3.80;;
35646;SDS011;28680;45.642;13.756;2022-10-31T04:25:30;6.47;;;3.03;;
35646;SDS011;28680;45.642;13.756;2022-10-31T04:27:56;11.85;;;3.63;;
35646;SDS011;28680;45.642;13.756;2022-10-31T04:30:22;8.63;;;2.70;;
35646;SDS011;28680;45.642;13.756;2022-10-31T04:32:48;10.48;;;2.70;;
35646;SDS011;28680;45.642;13.756;2022-10-31T04:35:14;7.57;;;3.22;;
35646;SDS011;28680;45.642;13.756;2022-10-31T04:37:41;8.25;;;3.00;;
35646;SDS011;28680;45.642;13.756;2022-10-31T04:40:07;8.65;;;2.88;;
35646;SDS011;28680;45.642;13.756;2022-10-31T04:42:33;8.75;;;3.17;;
35646;SDS011;28680;45.642;13.756;2022-10-31T04:44:59;7.50;;;3.15;;
35646;SDS011;28680;45.642;13.756;2022-10-31T04:47:25;11.60;;;3.15;;
35646;SDS011;28680;45.642;13.756;2022-10-31T04:49:50;9.23;;;3.30;;
35646;SDS011;28680;45.642;13.756;2022-10-31T04:52:22;8.75;;;3.08;;
35646;SDS011;28680;45.642;13.756;2022-10-31T04:54:48;7.13;;;2.92;;
35646;SDS011;28680;45.642;13.756;2022-10-31T04:57:14;9.73;;;3.15;;
35646;SDS011;28680;45.642;13.756;2022-10-31T04:59:39;8.35;;;2.72;;
35646;SDS011;28680;45.642;13.756;2022-10-31T05:02:05;10.35;;;2.90;;
35646;SDS011;28680;45.642;13.756;2022-10-31T05:04:31;10.43;;;3.10;;
35646;SDS011;28680;45.642;13.756;2022-10-31T05:06:57;14.57;;;3.30;;
35646;SDS011;28680;45.642;13.756;2022-10-31T05:09:23;14.32;;;3.38;;
35646;SDS011;28680;45.642;13.756;2022-10-31T05:11:49;10.13;;;3.22;;
35646;SDS011;28680;45.642;13.756;2022-10-31T05:14:14;12.55;;;4.13;;
35646;SDS011;28680;45.642;13.756;2022-10-31T05:16:55;9.07;;;3.60;;
35646;SDS011;28680;45.642;13.756;2022-10-31T05:19:21;11.98;;;3.65;;
35646;SDS011;28680;45.642;13.756;2022-10-31T05:21:47;12.85;;;3.10;;
35646;SDS011;28680;45.642;13.756;2022-10-31T05:24:13;7.65;;;3.10;;
35646;SDS011;28680;45.642;13.756;2022-10-31T05:26:39;8.90;;;3.00;;
35646;SDS011;28680;45.642;13.756;2022-10-31T05:29:05;10.07;;;3.35;;
35646;SDS011;28680;45.642;13.756;2022-10-31T05:31:31;10.25;;;3.15;;
35646;SDS011;28680;45.642;13.756;2022-10-31T05:33:57;7.53;;;2.60;;
35646;SDS011;28680;45.642;13.756;2022-10-31T05:36:23;5.32;;;2.60;;
35646;SDS011;28680;45.642;13.756;2022-10-31T05:38:50;7.63;;;2.38;;
35646;SDS011;28680;45.642;13.756;2022-10-31T05:41:15;6.47;;;2.30;;
35646;SDS011;28680;45.642;13.756;2022-10-31T05:43:41;12.30;;;2.95;;
35646;SDS011;28680;45.642;13.756;2022-10-31T05:46:07;8.82;;;2.60;;
35646;SDS011;28680;45.642;13.756;2022-10-31T05:48:33;9.40;;;2.42;;
35646;SDS011;28680;45.642;13.756;2022-10-31T05:51:22;6.35;;;2.58;;
35646;SDS011;28680;45.642;13.756;2022-10-31T05:53:48;8.40;;;2.40;;
35646;SDS011;28680;45.642;13.756;2022-10-31T05:56:14;6.53;;;2.58;;
35646;SDS011;28680;45.642;13.756;2022-10-31T05:58:40;9.63;;;2.70;;
35646;SDS011;28680;45.642;13.756;2022-10-31T06:01:06;9.27;;;3.00;;
35646;SDS011;28680;45.642;13.756;2022-10-31T06:03:41;8.18;;;3.13;;
35646;SDS011;28680;45.642;13.756;2022-10-31T06:06:06;10.73;;;2.97;;
35646;SDS011;28680;45.642;13.756;2022-10-31T06:08:32;10.40;;;2.80;;
35646;SDS011;28680;45.642;13.756;2022-10-31T06:10:58;10.70;;;3.10;;
35646;SDS011;28680;45.642;13.756;2022-10-31T06:13:24;7.85;;;2.40;;
35646;SDS011;28680;45.642;13.756;2022-10-31T06:15:50;10.95;;;2.65;;
35646;SDS011;28680;45.642;13.756;2022-10-31T06:18:16;8.25;;;2.53;;
35646;SDS011;28680;45.642;13.756;2022-10-31T06:20:42;13.32;;;2.72;;
35646;SDS011;28680;45.642;13.756;2022-10-31T06:23:07;10.90;;;2.90;;
35646;SDS011;28680;45.642;13.756;2022-10-31T06:25:33;20.00;;;4.20;;
35646;SDS011;28680;45.642;13.756;2022-10-31T06:27:59;9.85;;;3.03;;
35646;SDS011;28680;45.642;13.756;2022-10-31T06:30:26;8.65;;;3.08;;
35646;SDS011;28680;45.642;13.756;2022-10-31T06:32:52;10.60;;;2.90;;
35646;SDS011;28680;45.642;13.756;2022-10-31T06:38:28;15.15;;;3.45;;
35646;SDS011;28680;45.642;13.756;2022-10-31T06:40:54;14.23;;;2.65;;
35646;SDS011;28680;45.642;13.756;2022-10-31T06:43:20;7.85;;;2.45;;
35646;SDS011;28680;45.642;13.756;2022-10-31T06:45:47;9.00;;;2.95;;
35646;SDS011;28680;45.642;13.756;2022-10-31T06:48:13;9.07;;;2.78;;
35646;SDS011;28680;45.642;13.756;2022-10-31T06:50:39;8.55;;;2.95;;
35646;SDS011;28680;45.642;13.756;2022-10-31T06:53:05;9.70;;;3.15;;
35646;SDS011;28680;45.642;13.756;2022-10-31T06:55:31;16.15;;;3.35;;
35646;SDS011;28680;45.642;13.756;2022-10-31T06:57:57;7.32;;;2.88;;
35646;SDS011;28680;45.642;13.756;2022-10-31T07:00:25;10.77;;;3.03;;
35646;SDS011;28680;45.642;13.756;2022-10-31T07:02:55;10.93;;;3.50;;
35646;SDS011;28680;45.642;13.756;2022-10-31T07:05:59;11.95;;;4.18;;
35646;SDS011;28680;45.642;13.756;2022-10-31T07:08:25;10.52;;;3.92;;
35646;SDS011;28680;45.642;13.756;2022-10-31T07:10:52;8.55;;;4.00;;
35646;SDS011;28680;45.642;13.756;2022-10-31T07:13:20;11.15;;;4.10;;
35646;SDS011;28680;45.642;13.756;2022-10-31T07:15:50;11.20;;;4.25;;
35646;SDS011;28680;45.642;13.756;2022-10-31T07:18:19;12.60;;;3.78;;
35646;SDS011;28680;45.642;13.756;2022-10-31T07:20:45;6.32;;;3.20;;
35646;SDS011;28680;45.642;13.756;2022-10-31T07:23:12;12.15;;;3.35;;
35646;SDS011;28680;45.642;13.756;2022-10-31T07:25:39;12.00;;;3.45;;
35646;SDS011;28680;45.642;13.756;2022-10-31T07:28:05;11.63;;;3.70;;
35646;SDS011;28680;45.642;13.756;2022-10-31T07:30:32;14.90;;;3.63;;
35646;SDS011;28680;45.642;13.756;2022-10-31T07:32:58;16.98;;;3.97;;
35646;SDS011;28680;45.642;13.756;2022-10-31T07:35:24;10.68;;;3.40;;
35646;SDS011;28680;45.642;13.756;2022-10-31T07:37:53;11.13;;;2.90;;
35646;SDS011;28680;45.642;13.756;2022-10-31T07:40:20;12.32;;;3.10;;
35646;SDS011;28680;45.642;13.756;2022-10-31T07:42:48;12.75;;;3.47;;
35646;SDS011;28680;45.642;13.756;2022-10-31T07:45:20;10.60;;;3.33;;
35646;SDS011;28680;45.642;13.756;2022-10-31T07:47:47;6.95;;;2.70;;
35646;SDS011;28680;45.642;13.756;2022-10-31T07:50:15;9.40;;;3.28;;
35646;SDS011;28680;45.642;13.756;2022-10-31T07:52:46;13.27;;;3.80;;
35646;SDS011;28680;45.642;13.756;2022-10-31T07:55:12;8.57;;;3.60;;
35646;SDS011;28680;45.642;13.756;2022-10-31T07:57:39;8.73;;;3.70;;
35646;SDS011;28680;45.642;13.756;2022-10-31T08:00:09;6.25;;;2.13;;
35646;SDS011;28680;45.642;13.756;2022-10-31T08:02:35;6.30;;;2.17;;
35646;SDS011;28680;45.642;13.756;2022-10-31T08:05:01;5.45;;;2.38;;
35646;SDS011;28680;45.642;13.756;2022-10-31T08:07:28;5.47;;;2.47;;
35646;SDS011;28680;45.642;13.756;2022-10-31T08:09:55;6.38;;;2.80;;
35646;SDS011;28680;45.642;13.756;2022-10-31T08:12:21;11.57;;;3.00;;
35646;SDS011;28680;45.642;13.756;2022-10-31T08:14:47;6.45;;;2.85;;
35646;SDS011;28680;45.642;13.756;2022-10-31T08:17:13;9.23;;;3.70;;
35646;SDS011;28680;45.642;13.756;2022-10-31T08:19:39;8.63;;;2.70;;
35646;SDS011;28680;45.642;13.756;2022-10-31T08:22:04;7.20;;;2.92;;
35646;SDS011;28680;45.642;13.756;2022-10-31T08:24:31;7.90;;;3.00;;
35646;SDS011;28680;45.642;13.756;2022-10-31T08:26:56;11.13;;;3.78;;
35646;SDS011;28680;45.642;13.756;2022-10-31T08:29:22;9.45;;;3.30;;
35646;SDS011;28680;45.642;13.756;2022-10-31T08:31:51;10.68;;;3.45;;
35646;SDS011;28680;45.642;13.756;2022-10-31T08:34:17;6.53;;;3.08;;
35646;SDS011;28680;45.642;13.756;2022-10-31T08:36:42;6.82;;;2.65;;
35646;SDS011;28680;45.642;13.756;2022-10-31T08:39:10;7.85;;;2.83;;
35646;SDS011;28680;45.642;13.756;2022-10-31T08:41:36;8.80;;;2.88;;
35646;SDS011;28680;45.642;13.756;2022-10-31T08:44:03;6.00;;;2.85;;
35646;SDS011;28680;45.642;13.756;2022-10-31T08:46:29;7.28;;;2.75;;
35646;SDS011;28680;45.642;13.756;2022-10-31T08:48:55;6.85;;;2.65;;
35646;SDS011;28680;45.642;13.756;2022-10-31T08:51:21;5.07;;;2.45;;
35646;SDS011;28680;45.642;13.756;2022-10-31T08:53:50;5.75;;;1.98;;
35646;SDS011;28680;45.642;13.756;2022-10-31T08:56:15;7.55;;;2.30;;
35646;SDS011;28680;45.642;13.756;2022-10-31T08:58:41;6.80;;;2.40;;
35646;SDS011;28680;45.642;13.756;2022-10-31T09:01:07;5.95;;;2.53;;
35646;SDS011;28680;45.642;13.756;2022-10-31T09:03:33;6.95;;;2.97;;
35646;SDS011;28680;45.642;13.756;2022-10-31T09:06:00;7.43;;;2.03;;
35646;SDS011;28680;45.642;13.756;2022-10-31T09:08:31;7.93;;;2.40;;
35646;SDS011;28680;45.642;13.756;2022-10-31T09:10:58;6.03;;;2.10;;
35646;SDS011;28680;45.642;13.756;2022-10-31T09:13:24;7.90;;;2.13;;
35646;SDS011;28680;45.642;13.756;2022-10-31T09:15:50;7.97;;;2.20;;
35646;SDS011;28680;45.642;13.756;2022-10-31T09:18:18;7.18;;;2.33;;
35646;SDS011;28680;45.642;13.756;2022-10-31T09:20:47;7.75;;;2.22;;
35646;SDS011;28680;45.642;13.756;2022-10-31T09:23:18;7.93;;;2.40;;
35646;SDS011;28680;45.642;13.756;2022-10-31T09:25:50;8.60;;;2.38;;
35646;SDS011;28680;45.642;13.756;2022-10-31T09:28:34;9.75;;;2.35;;
35646;SDS011;28680;45.642;13.756;2022-10-31T09:31:27;6.88;;;2.75;;
35646;SDS011;28680;45.642;13.756;2022-10-31T09:33:53;9.05;;;2.80;;
35646;SDS011;28680;45.642;13.756;2022-10-31T09:36:19;7.25;;;2.60;;
35646;SDS011;28680;45.642;13.756;2022-10-31T09:41:27;10.73;;;2.55;;
35646;SDS011;28680;45.642;13.756;2022-10-31T09:44:51;7.05;;;2.78;;
35646;SDS011;28680;45.642;13.756;2022-10-31T09:47:17;11.82;;;3.70;;
35646;SDS011;28680;45.642;13.756;2022-10-31T09:52:44;10.90;;;3.15;;
35646;SDS011;28680;45.642;13.756;2022-10-31T09:55:47;8.43;;;3.22;;
35646;SDS011;28680;45.642;13.756;2022-10-31T09:58:15;9.32;;;3.35;;
35646;SDS011;28680;45.642;13.756;2022-10-31T10:00:47;9.05;;;3.05;;
35646;SDS011;28680;45.642;13.756;2022-10-31T10:03:20;13.25;;;3.58;;
35646;SDS011;28680;45.642;13.756;2022-10-31T10:08:44;9.93;;;3.25;;
35646;SDS011;28680;45.642;13.756;2022-10-31T10:17:02;11.52;;;3.92;;
35646;SDS011;28680;45.642;13.756;2022-10-31T10:22:57;10.80;;;3.47;;
35646;SDS011;28680;45.642;13.756;2022-10-31T10:25:39;14.13;;;3.63;;
35646;SDS011;28680;45.642;13.756;2022-10-31T10:36:28;12.43;;;3.33;;
35646;SDS011;28680;45.642;13.756;2022-10-31T10:39:11;8.30;;;3.20;;
35646;SDS011;28680;45.642;13.756;2022-10-31T10:41:41;10.60;;;3.45;;
35646;SDS011;28680;45.642;13.756;2022-10-31T10:44:33;8.15;;;3.17;;
35646;SDS011;28680;45.642;13.756;2022-10-31T10:47:23;8.68;;;3.17;;
35646;SDS011;28680;45.642;13.756;2022-10-31T10:50:27;8.18;;;3.97;;
35646;SDS011;28680;45.642;13.756;2022-10-31T10:53:11;11.68;;;3.83;;
35646;SDS011;28680;45.642;13.756;2022-10-31T10:56:18;10.40;;;3.45;;
35646;SDS011;28680;45.642;13.756;2022-10-31T10:58:56;9.00;;;3.10;;
35646;SDS011;28680;45.642;13.756;2022-10-31T11:01:23;10.25;;;3.42;;
35646;SDS011;28680;45.642;13.756;2022-10-31T11:03:50;8.43;;;3.30;;
35646;SDS011;28680;45.642;13.756;2022-10-31T11:06:17;11.30;;;3.80;;
35646;SDS011;28680;45.642;13.756;2022-10-31T11:08:56;8.35;;;3.72;;
35646;SDS011;28680;45.642;13.756;2022-10-31T11:13:57;10.45;;;3.97;;
35646;SDS011;28680;45.642;13.756;2022-10-31T11:16:33;13.35;;;3.90;;
35646;SDS011;28680;45.642;13.756;2022-10-31T11:19:23;8.57;;;3.40;;
35646;SDS011;28680;45.642;13.756;2022-10-31T11:21:52;8.68;;;2.92;;
35646;SDS011;28680;45.642;13.756;2022-10-31T11:24:22;9.43;;;4.03;;
35646;SDS011;28680;45.642;13.756;2022-10-31T11:27:03;10.43;;;3.70;;
35646;SDS011;28680;45.642;13.756;2022-10-31T11:29:41;10.82;;;4.15;;
35646;SDS011;28680;45.642;13.756;2022-10-31T11:32:30;7.53;;;3.45;;
35646;SDS011;28680;45.642;13.756;2022-10-31T11:35:00;10.80;;;4.00;;
35646;SDS011;28680;45.642;13.756;2022-10-31T11:37:34;10.95;;;4.28;;
35646;SDS011;28680;45.642;13.756;2022-10-31T11:40:06;9.38;;;4.00;;
35646;SDS011;28680;45.642;13.756;2022-10-31T11:42:45;11.85;;;3.47;;
35646;SDS011;28680;45.642;13.756;2022-10-31T11:45:16;9.05;;;3.35;;
35646;SDS011;28680;45.642;13.756;2022-10-31T11:48:01;10.50;;;3.40;;
35646;SDS011;28680;45.642;13.756;2022-10-31T11:50:39;11.38;;;3.03;;
35646;SDS011;28680;45.642;13.756;2022-10-31T11:53:16;7.28;;;3.17;;
35646;SDS011;28680;45.642;13.756;2022-10-31T11:55:47;10.90;;;4.32;;
35646;SDS011;28680;45.642;13.756;2022-10-31T11:58:25;11.98;;;3.80;;
35646;SDS011;28680;45.642;13.756;2022-10-31T12:00:53;8.95;;;3.78;;
35646;SDS011;28680;45.642;13.756;2022-10-31T12:06:18;9.75;;;3.63;;
35646;SDS011;28680;45.642;13.756;2022-10-31T12:08:57;12.60;;;3.93;;
35646;SDS011;28680;45.642;13.756;2022-10-31T12:11:39;9.23;;;4.00;;
35646;SDS011;28680;45.642;13.756;2022-10-31T12:17:39;8.57;;;3.55;;
35646;SDS011;28680;45.642;13.756;2022-10-31T12:26:32;8.40;;;3.58;;
35646;SDS011;28680;45.642;13.756;2022-10-31T12:29:31;11.02;;;4.07;;
35646;SDS011;28680;45.642;13.756;2022-10-31T12:35:02;10.85;;;4.15;;
35646;SDS011;28680;45.642;13.756;2022-10-31T12:37:46;10.65;;;4.00;;
35646;SDS011;28680;45.642;13.756;2022-10-31T12:40:33;12.10;;;3.90;;
35646;SDS011;28680;45.642;13.756;2022-10-31T12:45:57;10.52;;;4.13;;
35646;SDS011;28680;45.642;13.756;2022-10-31T12:48:33;7.32;;;3.67;;
35646;SDS011;28680;45.642;13.756;2022-10-31T13:00:16;12.73;;;4.38;;
35646;SDS011;28680;45.642;13.756;2022-10-31T13:05:27;9.48;;;3.97;;
35646;SDS011;28680;45.642;13.756;2022-10-31T13:10:48;12.32;;;5.30;;
35646;SDS011;28680;45.642;13.756;2022-10-31T13:16:21;11.10;;;5.25;;
35646;SDS011;28680;45.642;13.756;2022-10-31T13:22:17;7.07;;;3.30;;
35646;SDS011;28680;45.642;13.756;2022-10-31T13:24:57;10.73;;;4.90;;
35646;SDS011;28680;45.642;13.756;2022-10-31T13:27:49;6.55;;;3.88;;
35646;SDS011;28680;45.642;13.756;2022-10-31T13:30:27;9.40;;;4.50;;
35646;SDS011;28680;45.642;13.756;2022-10-31T13:33:05;8.68;;;4.53;;
35646;SDS011;28680;45.642;13.756;2022-10-31T13:38:59;10.45;;;4.80;;
35646;SDS011;28680;45.642;13.756;2022-10-31T13:42:27;9.23;;;4.00;;
35646;SDS011;28680;45.642;13.756;2022-10-31T13:45:06;11.55;;;4.82;;
35646;SDS011;28680;45.642;13.756;2022-10-31T13:48:00;16.85;;;5.28;;
35646;SDS011;28680;45.642;13.756;2022-10-31T13:50:42;12.00;;;4.60;;
35646;SDS011;28680;45.642;13.756;2022-10-31T13:56:22;12.43;;;4.35;;
35646;SDS011;28680;45.642;13.756;2022-10-31T14:01:35;9.82;;;4.72;;
35646;SDS011;28680;45.642;13.756;2022-10-31T14:04:06;7.82;;;4.50;;
35646;SDS011;28680;45.642;13.756;2022-10-31T14:09:21;12.30;;;5.38;;
35646;SDS011;28680;45.642;13.756;2022-10-31T14:11:50;11.23;;;5.43;;
35646;SDS011;28680;45.642;13.756;2022-10-31T14:14:17;10.18;;;4.32;;
35646;SDS011;28680;45.642;13.756;2022-10-31T14:16:45;10.15;;;4.82;;
35646;SDS011;28680;45.642;13.756;2022-10-31T14:19:21;13.95;;;4.82;;
35646;SDS011;28680;45.642;13.756;2022-10-31T14:21:48;8.20;;;4.03;;
35646;SDS011;28680;45.642;13.756;2022-10-31T14:24:28;10.70;;;4.53;;
35646;SDS011;28680;45.642;13.756;2022-10-31T14:26:59;9.80;;;4.53;;
35646;SDS011;28680;45.642;13.756;2022-10-31T14:29:50;8.30;;;4.65;;
35646;SDS011;28680;45.642;13.756;2022-10-31T14:51:41;15.02;;;6.32;;
35646;SDS011;28680;45.642;13.756;2022-10-31T14:54:12;16.08;;;6.00;;
35646;SDS011;28680;45.642;13.756;2022-10-31T14:57:05;13.02;;;5.50;;
35646;SDS011;28680;45.642;13.756;2022-10-31T15:00:12;11.10;;;5.78;;
35646;SDS011;28680;45.642;13.756;2022-10-31T15:05:51;12.65;;;5.43;;
35646;SDS011;28680;45.642;13.756;2022-10-31T15:11:17;10.25;;;5.00;;
35646;SDS011;28680;45.642;13.756;2022-10-31T15:13:58;10.90;;;5.40;;
35646;SDS011;28680;45.642;13.756;2022-10-31T15:16:31;14.82;;;6.80;;
35646;SDS011;28680;45.642;13.756;2022-10-31T15:19:04;12.30;;;6.45;;
35646;SDS011;28680;45.642;13.756;2022-10-31T15:21:33;13.10;;;5.35;;
35646;SDS011;28680;45.642;13.756;2022-10-31T15:24:01;15.30;;;4.82;;
35646;SDS011;28680;45.642;13.756;2022-10-31T15:32:46;15.05;;;6.32;;
35646;SDS011;28680;45.642;13.756;2022-10-31T15:35:21;17.80;;;4.97;;
35646;SDS011;28680;45.642;13.756;2022-10-31T15:37:53;17.27;;;5.72;;
35646;SDS011;28680;45.642;13.756;2022-10-31T15:40:21;10.25;;;5.80;;
35646;SDS011;28680;45.642;13.756;2022-10-31T15:42:53;15.07;;;6.05;;
35646;SDS011;28680;45.642;13.756;2022-10-31T15:45:31;11.80;;;5.18;;
35646;SDS011;28680;45.642;13.756;2022-10-31T15:47:59;15.88;;;6.63;;
35646;SDS011;28680;45.642;13.756;2022-10-31T15:50:39;15.30;;;6.95;;
35646;SDS011;28680;45.642;13.756;2022-10-31T15:53:23;14.75;;;6.82;;
35646;SDS011;28680;45.642;13.756;2022-10-31T15:56:00;17.02;;;6.40;;
35646;SDS011;28680;45.642;13.756;2022-10-31T16:01:21;16.67;;;6.43;;
35646;SDS011;28680;45.642;13.756;2022-10-31T16:03:59;17.20;;;6.45;;
35646;SDS011;28680;45.642;13.756;2022-10-31T16:06:37;14.27;;;7.25;;
35646;SDS011;28680;45.642;13.756;2022-10-31T16:09:04;23.20;;;8.57;;
35646;SDS011;28680;45.642;13.756;2022-10-31T16:11:47;14.93;;;8.17;;
35646;SDS011;28680;45.642;13.756;2022-10-31T16:14:15;17.45;;;8.20;;
35646;SDS011;28680;45.642;13.756;2022-10-31T16:16:49;16.65;;;7.82;;
35646;SDS011;28680;45.642;13.756;2022-10-31T16:19:20;19.73;;;8.02;;
35646;SDS011;28680;45.642;13.756;2022-10-31T16:21:49;14.88;;;8.18;;
35646;SDS011;28680;45.642;13.756;2022-10-31T16:24:33;18.77;;;8.35;;
35646;SDS011;28680;45.642;13.756;2022-10-31T16:27:19;18.25;;;6.45;;
35646;SDS011;28680;45.642;13.756;2022-10-31T16:29:53;13.68;;;7.10;;
35646;SDS011;28680;45.642;13.756;2022-10-31T16:35:33;18.67;;;7.45;;
35646;SDS011;28680;45.642;13.756;2022-10-31T16:38:04;15.55;;;7.35;;
35646;SDS011;28680;45.642;13.756;2022-10-31T16:40:31;19.00;;;8.85;;
35646;SDS011;28680;45.642;13.756;2022-10-31T16:42:58;17.50;;;7.25;;
35646;SDS011;28680;45.642;13.756;2022-10-31T16:45:26;18.52;;;6.75;;
35646;SDS011;28680;45.642;13.756;2022-10-31T16:48:10;18.77;;;6.88;;
35646;SDS011;28680;45.642;13.756;2022-10-31T16:50:40;13.55;;;6.50;;
35646;SDS011;28680;45.642;13.756;2022-10-31T16:53:08;19.08;;;6.57;;
35646;SDS011;28680;45.642;13.756;2022-10-31T16:55:36;23.23;;;7.47;;
35646;SDS011;28680;45.642;13.756;2022-10-31T16:58:19;23.45;;;7.80;;
35646;SDS011;28680;45.642;13.756;2022-10-31T17:01:00;17.05;;;6.32;;
35646;SDS011;28680;45.642;13.756;2022-10-31T17:03:29;22.63;;;7.38;;
35646;SDS011;28680;45.642;13.756;2022-10-31T17:05:55;21.92;;;7.85;;
35646;SDS011;28680;45.642;13.756;2022-10-31T17:08:21;24.00;;;7.30;;
35646;SDS011;28680;45.642;13.756;2022-10-31T17:10:53;15.98;;;6.40;;
35646;SDS011;28680;45.642;13.756;2022-10-31T17:13:25;19.33;;;6.75;;
35646;SDS011;28680;45.642;13.756;2022-10-31T17:15:55;14.93;;;6.30;;
35646;SDS011;28680;45.642;13.756;2022-10-31T17:18:26;21.88;;;6.95;;
35646;SDS011;28680;45.642;13.756;2022-10-31T17:20:59;22.33;;;7.10;;
35646;SDS011;28680;45.642;13.756;2022-10-31T17:23:28;20.58;;;7.00;;
35646;SDS011;28680;45.642;13.756;2022-10-31T17:25:55;17.98;;;6.82;;
35646;SDS011;28680;45.642;13.756;2022-10-31T17:28:21;16.65;;;6.97;;
35646;SDS011;28680;45.642;13.756;2022-10-31T17:30:47;20.05;;;6.47;;
35646;SDS011;28680;45.642;13.756;2022-10-31T17:33:13;20.77;;;7.32;;
35646;SDS011;28680;45.642;13.756;2022-10-31T17:35:41;23.20;;;6.75;;
35646;SDS011;28680;45.642;13.756;2022-10-31T17:38:09;16.70;;;6.10;;